Terminal Aerodrome Forecast
Issued by NWS

Home | Current Version | Previous Version | Text Only | Print | Product List | Glossary On
Versions: 1 2 3 4 5 6 7 8 9 10 11 12 13 14 15 16 17 18
000
FTUS45 KGJT 091138
TAFTEX
TAF
KTEX 091138Z 0912/1012 VRB03KT P6SM OVC028
     FM091500 VRB03KT P6SM SCT030 BKN040
     FM091800 26005KT P6SM BKN050
     FM092000 26005KT P6SM SCT050
     FM100200 13004KT P6SM SCT150=

USA.gov is the U.S. government's official web portal to all federal, state and local government web resources and services.